createdAt,value
2017-03-14T00:00:03.013Z,99.99
2017-03-14T00:05:03.041Z,99.99
2017-03-14T00:10:03.692Z,99.99
2017-03-14T00:15:03.408Z,99.99
2017-03-14T00:20:03.014Z,99.99
2017-03-14T00:25:03.606Z,99.99
2017-03-14T00:30:03.184Z,99.99
2017-03-14T00:35:02.953Z,99.99
2017-03-14T00:40:03.742Z,99.99
2017-03-14T00:45:03.446Z,99.96
2017-03-14T00:50:03.093Z,99.77
2017-03-14T00:55:02.839Z,99.39
2017-03-14T01:00:03.529Z,99.01
2017-03-14T01:05:02.993Z,98.73
2017-03-14T01:10:02.756Z,98.44
2017-03-14T01:15:03.472Z,98.25
2017-03-14T01:20:03.052Z,97.97
2017-03-14T01:25:03.641Z,98.07
2017-03-14T01:30:03.364Z,97.59
2017-03-14T01:35:02.890Z,97.12
2017-03-14T01:40:03.585Z,96.73
2017-03-14T01:45:03.158Z,96.64
2017-03-14T01:50:02.824Z,96.26
2017-03-14T01:55:03.395Z,96.31
2017-03-14T02:00:03.234Z,95.84
2017-03-14T02:05:02.814Z,95.74
2017-03-14T02:10:03.444Z,95.74
2017-03-14T02:15:03.112Z,95.55
2017-03-14T02:20:03.694Z,95.55
2017-03-14T02:25:03.298Z,95.36
2017-03-14T02:30:02.805Z,94.79
2017-03-14T02:35:03.470Z,94.51
2017-03-14T02:40:03.106Z,94.32
2017-03-14T02:45:03.721Z,93.94
2017-03-14T02:50:03.418Z,93.75
2017-03-14T02:55:03.197Z,93.37
2017-03-14T03:00:02.981Z,93.27
2017-03-14T03:05:03.629Z,92.9
2017-03-14T03:10:03.446Z,92.9
2017-03-14T03:15:03.141Z,93.08
2017-03-14T03:20:02.802Z,92.99
2017-03-14T03:25:03.429Z,93.08
2017-03-14T03:30:03.026Z,92.99
2017-03-14T03:35:03.684Z,92.99
2017-03-14T03:40:03.491Z,92.9
2017-03-14T03:45:03.241Z,92.8
2017-03-14T03:50:02.889Z,92.8
2017-03-14T03:55:03.661Z,92.8
2017-03-14T04:00:03.450Z,92.8
2017-03-14T04:05:02.946Z,92.61
2017-03-14T04:10:03.681Z,92.52
2017-03-14T04:15:03.236Z,92.33
2017-03-14T04:20:02.918Z,92.23
2017-03-14T04:25:03.580Z,92.04
2017-03-14T04:30:03.098Z,91.76
2017-03-14T04:35:02.787Z,91.85
2017-03-14T04:40:03.594Z,91.76
2017-03-14T04:45:03.366Z,91.57
2017-03-14T04:50:02.992Z,91.38
2017-03-14T04:55:03.005Z,91.19
2017-03-14T05:00:03.777Z,91.38
2017-03-14T05:05:03.429Z,91.57
2017-03-14T05:10:03.120Z,91.66
2017-03-14T05:15:02.709Z,92.23
2017-03-14T05:20:03.472Z,92.61
2017-03-14T05:25:03.082Z,92.99
2017-03-14T05:30:03.041Z,93.46
2017-03-14T05:35:03.640Z,93.84
2017-03-14T05:40:03.472Z,94.13
2017-03-14T05:45:03.033Z,94.42
2017-03-14T05:50:03.652Z,94.51
2017-03-14T05:55:03.374Z,94.7
2017-03-14T06:00:03.134Z,94.89
2017-03-14T06:05:02.912Z,94.89
2017-03-14T06:10:03.596Z,94.98
2017-03-14T06:15:03.207Z,95.26
2017-03-14T06:20:02.880Z,95.74
2017-03-14T06:25:03.556Z,95.93
2017-03-14T06:30:03.159Z,96.22
2017-03-14T06:35:03.708Z,96.31
2017-03-14T06:40:03.355Z,96.55
2017-03-14T06:45:02.968Z,96.83
2017-03-14T06:50:03.636Z,97.02
2017-03-14T06:55:03.340Z,97.21
2017-03-14T07:00:02.993Z,97.59
2017-03-14T07:05:03.648Z,97.97
2017-03-14T07:10:03.283Z,98.44
2017-03-14T07:15:02.780Z,98.68
2017-03-14T07:20:03.443Z,98.97
2017-03-14T07:25:03.041Z,99.99
2017-03-14T07:30:03.628Z,99.99
2017-03-14T07:35:03.187Z,99.99
2017-03-14T07:40:02.796Z,99.99
2017-03-14T07:45:03.442Z,99.99
2017-03-14T07:50:03.125Z,99.99
2017-03-14T07:55:02.833Z,99.99
2017-03-14T08:00:03.556Z,99.99
2017-03-14T08:05:03.335Z,99.99
2017-03-14T08:10:02.962Z,99.99
2017-03-14T08:15:03.556Z,99.99
2017-03-14T08:20:03.124Z,99.99
2017-03-14T08:25:03.675Z,99.99
2017-03-14T08:30:03.324Z,99.99
2017-03-14T08:35:02.944Z,99.99
2017-03-14T08:40:03.652Z,99.99
2017-03-14T08:45:03.363Z,99.99
2017-03-14T08:50:02.968Z,99.99
2017-03-14T08:55:03.714Z,99.99
2017-03-14T09:00:03.352Z,99.99
2017-03-14T09:05:03.158Z,99.99
2017-03-14T09:10:02.871Z,99.99
2017-03-14T09:15:03.510Z,99.99
2017-03-14T09:20:03.143Z,99.99
2017-03-14T09:25:02.818Z,99.99
2017-03-14T09:30:03.389Z,99.99
2017-03-14T09:35:03.144Z,99.99
2017-03-14T09:40:02.758Z,99.99
2017-03-14T09:50:03.051Z,99.99
2017-03-14T09:55:02.714Z,99.99
2017-03-14T10:00:02.871Z,99.99
2017-03-14T10:05:03.607Z,99.99
2017-03-14T10:10:03.544Z,99.99
2017-03-14T10:15:03.127Z,99.99
2017-03-14T10:20:02.787Z,99.99
2017-03-14T10:25:02.870Z,99.99
2017-03-14T10:30:02.777Z,99.99
2017-03-14T10:35:03.404Z,99.99
2017-03-14T10:40:03.167Z,96.8
2017-03-14T10:45:02.748Z,95.65
2017-03-14T10:50:03.334Z,94.17
2017-03-14T10:55:02.949Z,93.07
2017-03-14T11:00:03.681Z,93.35
2017-03-14T11:05:03.347Z,90.62
2017-03-14T11:10:03.341Z,90
2017-03-14T11:15:03.362Z,90.19
2017-03-14T11:20:03.048Z,86.68
2017-03-14T11:25:02.999Z,86.68
2017-03-14T11:30:03.438Z,85.19
2017-03-14T11:35:03.709Z,83.65
2017-03-14T11:40:03.622Z,83.18
2017-03-14T11:45:03.628Z,84.04
2017-03-14T11:50:02.906Z,83.22
2017-03-14T11:55:03.097Z,82.16
2017-03-14T12:00:02.978Z,83.74
2017-03-14T12:05:03.580Z,79.03
2017-03-14T12:10:03.461Z,79.96
2017-03-14T12:15:02.762Z,81.59
2017-03-14T12:20:02.807Z,82.03
2017-03-14T12:25:03.138Z,82.89
2017-03-14T12:30:03.225Z,82.89
2017-03-14T12:35:03.411Z,83.37
2017-03-14T12:40:02.791Z,82.74
2017-03-14T12:45:02.961Z,81.43
2017-03-14T12:50:02.886Z,79.8
2017-03-14T12:55:03.593Z,79.22
2017-03-14T13:00:03.474Z,79.07
2017-03-14T13:05:03.204Z,77.5
2017-03-14T13:10:03.101Z,78.45
2017-03-14T13:15:02.887Z,77.5
2017-03-14T13:20:02.731Z,78.65
2017-03-14T13:25:03.643Z,79.52
2017-03-14T13:30:02.899Z,79.86
2017-03-14T13:35:02.710Z,78.88
2017-03-14T13:40:02.871Z,76.77
2017-03-14T13:45:02.866Z,76.32
2017-03-14T13:50:03.607Z,75.27
2017-03-14T13:55:03.126Z,75.46
2017-03-14T14:00:03.337Z,74.88
2017-03-14T14:05:03.481Z,74.21
2017-03-14T14:10:03.825Z,75.32
2017-03-14T14:15:03.325Z,77.75
2017-03-14T14:20:03.426Z,78.77
2017-03-14T14:25:03.490Z,78.47
2017-03-14T14:30:02.881Z,80.01
2017-03-14T14:35:02.778Z,80.97
2017-03-14T14:40:02.959Z,81.22
2017-03-14T14:45:03.270Z,82.08
2017-03-14T14:50:03.078Z,83.33
2017-03-14T14:55:03.120Z,82.18
2017-03-14T15:00:03.354Z,82.37
2017-03-14T15:05:03.381Z,82.62
2017-03-14T15:10:03.412Z,83.38
2017-03-14T15:15:03.655Z,83.95
2017-03-14T15:20:03.655Z,84.15
2017-03-14T15:25:02.994Z,83.48
2017-03-14T15:30:03.137Z,83.95
2017-03-14T15:35:03.229Z,84.58
2017-03-14T15:40:02.789Z,85.93
2017-03-14T15:45:03.208Z,87.27
2017-03-14T15:50:03.084Z,88.28
2017-03-14T15:55:03.168Z,89.04
2017-03-14T16:00:03.214Z,89.9
2017-03-14T16:05:02.847Z,90.58
2017-03-14T16:10:03.644Z,90.82
2017-03-14T16:15:03.384Z,91.39
2017-03-14T16:20:03.314Z,92.06
2017-03-14T16:25:03.563Z,93.21
2017-03-14T16:30:03.286Z,94.17
2017-03-14T16:35:02.994Z,97.37
2017-03-14T16:40:03.702Z,99.99
2017-03-14T16:45:03.431Z,99.99
2017-03-14T16:50:03.110Z,99.99
2017-03-14T16:55:03.706Z,99.99
2017-03-14T17:00:03.420Z,99.99
2017-03-14T17:05:03.183Z,99.99
2017-03-14T17:10:02.835Z,99.99
2017-03-14T17:15:03.525Z,99.99
2017-03-14T17:20:03.207Z,99.99
2017-03-14T17:25:02.857Z,99.99
2017-03-14T17:30:03.444Z,99.99
2017-03-14T17:35:03.288Z,99.99
2017-03-14T17:40:02.939Z,99.99
2017-03-14T17:45:03.592Z,99.99
2017-03-14T17:50:03.269Z,99.99
2017-03-14T17:55:02.984Z,99.99
2017-03-14T18:00:03.708Z,99.99
2017-03-14T18:05:03.430Z,99.99
2017-03-14T18:10:03.017Z,99.99
2017-03-14T18:15:02.750Z,99.99
2017-03-14T18:20:03.659Z,99.99
2017-03-14T18:25:03.372Z,99.99
2017-03-14T18:30:03.044Z,99.99
2017-03-14T18:35:02.884Z,99.99
2017-03-14T18:40:03.656Z,99.99
2017-03-14T18:45:03.295Z,99.99
2017-03-14T18:50:02.887Z,99.99
2017-03-14T18:55:03.579Z,99.99
2017-03-14T19:00:03.133Z,99.99
2017-03-14T19:05:02.834Z,99.99
2017-03-14T19:10:03.551Z,99.99
2017-03-14T19:15:03.236Z,99.99
2017-03-14T19:20:02.985Z,99.99
2017-03-14T19:25:03.647Z,99.99
2017-03-14T19:30:03.355Z,99.99
2017-03-14T19:35:02.886Z,99.99
2017-03-14T19:40:03.545Z,99.99
2017-03-14T19:45:03.481Z,99.99
2017-03-14T19:50:03.030Z,99.99
2017-03-14T19:55:03.760Z,99.99
2017-03-14T20:00:03.469Z,99.99
2017-03-14T20:05:03.172Z,99.99
2017-03-14T20:10:02.818Z,99.99
2017-03-14T20:15:03.411Z,99.99
2017-03-14T20:20:03.477Z,99.99
2017-03-14T20:25:03.079Z,99.99
2017-03-14T20:30:03.634Z,99.99
2017-03-14T20:35:03.430Z,99.99
2017-03-14T20:40:03.239Z,99.99
2017-03-14T20:45:02.883Z,99.99
2017-03-14T20:50:03.528Z,99.99
2017-03-14T20:55:03.161Z,99.99
2017-03-14T21:00:02.773Z,99.99
2017-03-14T21:05:03.397Z,99.99
2017-03-14T21:10:03.153Z,99.99
2017-03-14T21:15:02.811Z,99.99
2017-03-14T21:20:03.650Z,99.99
2017-03-14T21:25:03.338Z,99.99
2017-03-14T21:30:02.905Z,99.99
2017-03-14T21:35:03.581Z,99.99
2017-03-14T21:40:03.340Z,99.99
2017-03-14T21:45:02.943Z,99.99
2017-03-14T21:50:03.694Z,99.99
2017-03-14T21:55:03.308Z,99.99
2017-03-14T22:00:03.052Z,99.88
2017-03-14T22:05:03.746Z,99.69
2017-03-14T22:10:03.347Z,99.6
2017-03-14T22:15:03.041Z,99.02
2017-03-14T22:20:02.806Z,99.41
2017-03-14T22:25:03.515Z,99.31
2017-03-14T22:30:03.069Z,99.31
2017-03-14T22:35:02.780Z,99.12
2017-03-14T22:40:03.488Z,98.5
2017-03-14T22:45:03.196Z,98.41
2017-03-14T22:50:02.864Z,98.03
2017-03-14T22:55:03.634Z,97.74
2017-03-14T23:00:03.284Z,97.36
2017-03-14T23:05:02.925Z,96.69
2017-03-14T23:10:03.589Z,96.03
2017-03-14T23:15:03.285Z,95.65
2017-03-14T23:20:02.842Z,95.08
2017-03-14T23:25:03.552Z,94.6
2017-03-14T23:30:03.165Z,94.18
2017-03-14T23:35:02.744Z,93.99
2017-03-14T23:40:03.402Z,93.6
2017-03-14T23:45:02.988Z,93.04
2017-03-14T23:50:03.369Z,92.75
2017-03-14T23:55:03.029Z,92.18
